AJM120 MBPV-MKJS
Flight info
| Callsign | AJM120 |
|---|---|
| Flight time | N/A |
| Altitude | 36000 |
| Route | OVALU UG629 IMADI LENAR7 |
| Aircraft | A321/M-SDE3FGHIRWY/LB1 |
Departure
| Time | 2026-04-26 19:43 |
|---|---|
| Airport | Providenciales International Airport (MBPV) |
Arrival
| Time | N/A |
|---|---|
| Airport | Sangster International Airport (MKJS) |
| Time | Latitude | Longitude | Altitude | Speed | Heading |
|---|---|---|---|---|---|
| 2026-04-26 19:33 | 21.77509 | -72.27090 | 29 ft | 1 kts | 272° |
| 2026-04-26 19:40 | 21.77510 | -72.27128 | 29 ft | 10 kts | 272° |
| 2026-04-26 19:40 | 21.77457 | -72.27198 | 30 ft | 19 kts | 187° |
| 2026-04-26 19:41 | 21.77399 | -72.27299 | 31 ft | 19 kts | 275° |
| 2026-04-26 19:41 | 21.77404 | -72.27479 | 32 ft | 29 kts | 271° |
| 2026-04-26 19:41 | 21.77416 | -72.27729 | 34 ft | 36 kts | 272° |
| 2026-04-26 19:41 | 21.77423 | -72.27904 | 35 ft | 35 kts | 272° |
| 2026-04-26 19:42 | 21.77474 | -72.28170 | 36 ft | 13 kts | 281° |
| 2026-04-26 19:42 | 21.77443 | -72.28178 | 36 ft | 5 kts | 86° |
| 2026-04-26 19:42 | 21.77426 | -72.27960 | 35 ft | 65 kts | 94° |
| 2026-04-26 19:42 | 21.77390 | -72.27239 | 30 ft | 125 kts | 94° |
| 2026-04-26 19:43 | 21.77334 | -72.26130 | 51 ft | 167 kts | 94° |
| 2026-04-26 19:43 | 21.77286 | -72.24889 | 661 ft | 165 kts | 94° |
| 2026-04-26 19:43 | 21.77229 | -72.23652 | 1244 ft | 166 kts | 95° |
| 2026-04-26 19:43 | 21.77166 | -72.22406 | 1782 ft | 171 kts | 95° |
| 2026-04-26 19:44 | 21.77080 | -72.21050 | 2032 ft | 192 kts | 99° |
| 2026-04-26 19:44 | 21.76500 | -72.19702 | 2229 ft | 210 kts | 136° |
| 2026-04-26 19:44 | 21.75191 | -72.18904 | 2382 ft | 229 kts | 169° |
| 2026-04-26 19:44 | 21.73530 | -72.18877 | 2566 ft | 251 kts | 187° |
| 2026-04-26 19:45 | 21.71755 | -72.19093 | 3202 ft | 260 kts | 188° |
| 2026-04-26 19:45 | 21.69951 | -72.19340 | 3986 ft | 263 kts | 190° |
| 2026-04-26 19:45 | 21.68247 | -72.19957 | 4731 ft | 264 kts | 213° |
| 2026-04-26 19:45 | 21.66916 | -72.21298 | 5468 ft | 265 kts | 237° |
| 2026-04-26 19:46 | 21.66087 | -72.23072 | 6222 ft | 267 kts | 245° |
| 2026-04-26 19:46 | 21.65318 | -72.24899 | 6940 ft | 269 kts | 245° |
| 2026-04-26 19:46 | 21.64544 | -72.26745 | 7632 ft | 272 kts | 245° |
| 2026-04-26 19:46 | 21.63760 | -72.28611 | 8327 ft | 275 kts | 245° |
| 2026-04-26 19:47 | 21.62965 | -72.30493 | 9039 ft | 278 kts | 245° |
| 2026-04-26 19:47 | 21.62433 | -72.31751 | 9515 ft | 279 kts | 245° |
| 2026-04-26 19:47 | 21.61344 | -72.34320 | 10226 ft | 291 kts | 245° |
| 2026-04-26 19:47 | 21.60474 | -72.36374 | 10349 ft | 312 kts | 245° |
| 2026-04-26 19:48 | 21.59544 | -72.38565 | 10470 ft | 332 kts | 245° |
| 2026-04-26 19:48 | 21.58559 | -72.40886 | 10610 ft | 350 kts | 245° |
| 2026-04-26 19:48 | 21.57537 | -72.43291 | 10962 ft | 350 kts | 245° |
| 2026-04-26 19:48 | 21.56538 | -72.45575 | 11580 ft | 325 kts | 245° |
| 2026-04-26 19:49 | 21.55615 | -72.47666 | 12347 ft | 302 kts | 245° |
| 2026-04-26 19:49 | 21.54755 | -72.49624 | 13220 ft | 278 kts | 245° |
| 2026-04-26 19:49 | 21.53959 | -72.51454 | 13704 ft | 266 kts | 245° |
| 2026-04-26 19:49 | 21.53216 | -72.53223 | 13700 ft | 257 kts | 246° |
| 2026-04-26 19:50 | 21.52496 | -72.54965 | 13650 ft | 253 kts | 249° |
| 2026-04-26 19:50 | 21.52241 | -72.56813 | 13293 ft | 252 kts | 276° |
| 2026-04-26 19:50 | 21.52875 | -72.58565 | 12878 ft | 257 kts | 304° |
| 2026-04-26 19:50 | 21.54260 | -72.59784 | 12461 ft | 264 kts | 333° |
| 2026-04-26 19:51 | 21.56059 | -72.60298 | 11935 ft | 271 kts | 347° |
| 2026-04-26 19:51 | 21.57915 | -72.60477 | 11553 ft | 269 kts | 3° |
| 2026-04-26 19:51 | 21.59719 | -72.59963 | 11123 ft | 268 kts | 17° |
| 2026-04-26 19:51 | 21.61464 | -72.59258 | 10666 ft | 267 kts | 19° |
| 2026-04-26 19:52 | 21.63192 | -72.58541 | 10233 ft | 265 kts | 19° |
| 2026-04-26 19:52 | 21.64910 | -72.57828 | 9802 ft | 263 kts | 19° |
| 2026-04-26 19:52 | 21.66612 | -72.57124 | 9336 ft | 261 kts | 19° |
| 2026-04-26 19:52 | 21.68302 | -72.56428 | 8874 ft | 259 kts | 19° |
| 2026-04-26 19:53 | 21.69981 | -72.55738 | 8428 ft | 257 kts | 19° |
| 2026-04-26 19:53 | 21.71647 | -72.55054 | 7997 ft | 255 kts | 19° |
| 2026-04-26 19:53 | 21.73301 | -72.54379 | 7570 ft | 253 kts | 19° |
| 2026-04-26 19:53 | 21.74924 | -72.53657 | 7143 ft | 252 kts | 29° |
| 2026-04-26 19:54 | 21.76155 | -72.52362 | 6614 ft | 248 kts | 60° |
| 2026-04-26 19:54 | 21.76652 | -72.50615 | 5990 ft | 244 kts | 84° |
| 2026-04-26 19:54 | 21.76800 | -72.48799 | 5302 ft | 244 kts | 87° |
| 2026-04-26 19:54 | 21.76902 | -72.46986 | 4636 ft | 242 kts | 88° |
| 2026-04-26 19:55 | 21.76996 | -72.45211 | 3987 ft | 240 kts | 88° |
| 2026-04-26 19:55 | 21.77086 | -72.43438 | 3376 ft | 234 kts | 88° |
| 2026-04-26 19:55 | 21.77172 | -72.41788 | 3166 ft | 209 kts | 87° |
| 2026-04-26 19:55 | 21.77251 | -72.40256 | 2729 ft | 203 kts | 87° |
| 2026-04-26 19:56 | 21.77327 | -72.38733 | 2229 ft | 201 kts | 88° |
| 2026-04-26 19:56 | 21.77412 | -72.37273 | 1904 ft | 199 kts | 85° |
| 2026-04-26 19:56 | 21.77528 | -72.35787 | 1462 ft | 199 kts | 86° |
| 2026-04-26 19:56 | 21.77637 | -72.34304 | 898 ft | 197 kts | 87° |
| 2026-04-26 19:57 | 21.77688 | -72.32877 | 598 ft | 184 kts | 89° |
| 2026-04-26 19:57 | 21.77618 | -72.31515 | 534 ft | 180 kts | 90° |
| 2026-04-26 19:57 | 21.77550 | -72.30175 | 412 ft | 179 kts | 91° |
| 2026-04-26 19:57 | 21.77479 | -72.28840 | 206 ft | 178 kts | 91° |
| 2026-04-26 19:58 | 21.77405 | -72.27535 | 44 ft | 164 kts | 94° |
| 2026-04-26 19:58 | 21.77342 | -72.26423 | 32 ft | 132 kts | 93° |
| 2026-04-26 19:58 | 21.77326 | -72.25950 | 21 ft | 0 kts | 92° |